Time;durP1;ratioP1;P1;durP2;ratioP2;P2;SDS_P1;SDS_P2;PMS_P1;PMS_P2;Temp;Humidity;BMP_temperature;BMP_pressure;BME280_temperature;BME280_humidity;BME280_pressure;Samples;Min_cycle;Max_cycle;Signal;HPM_P1;HPM_P2
2023/05/25 00:02:05;;;;;;;23.60;18.00;;;;;;;13.38;79.95;100817.70;102751;277;96030;-58
2023/05/25 00:04:47;;;;;;;23.90;19.00;;;;;;;13.39;80.07;100815.20;102813;276;98027;-59
2023/05/25 00:07:24;;;;;;;23.70;19.00;;;;;;;13.36;79.98;100819.06;102772;277;121045;-58
2023/05/25 00:10:03;;;;;;;21.60;18.10;;;;;;;13.29;80.01;100818.55;102731;277;104229;-58
2023/05/25 00:12:44;;;;;;;24.70;18.40;;;;;;;13.25;80.19;100817.96;102700;277;114594;-58
2023/05/25 00:15:21;;;;;;;22.90;19.40;;;;;;;13.23;80.37;100819.16;102712;277;96723;-57
2023/05/25 00:18:02;;;;;;;20.70;18.20;;;;;;;13.18;80.40;100817.65;102764;277;97605;-56
2023/05/25 00:20:41;;;;;;;23.90;18.50;;;;;;;13.14;80.56;100819.69;102762;275;120014;-55
2023/05/25 00:23:23;;;;;;;23.80;19.00;;;;;;;13.15;80.54;100823.27;102728;277;104523;-58
2023/05/25 00:26:04;;;;;;;24.90;19.40;;;;;;;13.15;80.76;100820.02;102692;277;114391;-58
2023/05/25 00:28:42;;;;;;;24.80;18.30;;;;;;;13.16;80.87;100821.45;102711;277;97011;-55
2023/05/25 00:31:26;;;;;;;27.80;19.60;;;;;;;13.21;80.93;100823.53;102727;277;97889;-54
2023/05/25 00:34:02;;;;;;;23.50;19.70;;;;;;;13.24;81.13;100826.77;102749;277;121342;-59
2023/05/25 00:36:47;;;;;;;25.40;20.70;;;;;;;13.28;81.28;100826.09;102807;277;106490;-59
2023/05/25 00:39:24;;;;;;;25.30;21.00;;;;;;;13.36;81.15;100823.91;102805;277;114963;-55
2023/05/25 00:42:05;;;;;;;28.20;21.50;;;;;;;13.44;81.08;100824.52;102813;277;96575;-56
2023/05/25 00:44:42;;;;;;;25.60;21.10;;;;;;;13.47;81.27;100821.64;102786;277;97163;-56
2023/05/25 00:47:26;;;;;;;27.80;20.60;;;;;;;13.49;81.32;100821.45;102746;277;121391;-55
2023/05/25 00:50:03;;;;;;;29.50;21.30;;;;;;;13.55;81.37;100825.25;102771;277;104949;-55
2023/05/25 00:52:39;;;;;;;29.60;21.40;;;;;;;13.58;81.40;100824.86;102542;277;115600;-56
2023/05/25 00:55:21;;;;;;;33.70;22.60;;;;;;;13.63;81.42;100828.27;102600;277;99263;-55
2023/05/25 00:58:00;;;;;;;;;;;;;;;13.68;81.39;100825.80;102763;276;97171;-56
2023/05/25 01:00:41;;;;;;;33.20;24.20;;;;;;;13.71;81.51;100828.75;102761;277;120141;-55
2023/05/25 01:03:26;;;;;;;30.70;23.50;;;;;;;13.75;81.46;100831.32;102725;277;104997;-55
2023/05/25 01:06:10;;;;;;;36.80;24.80;;;;;;;13.77;81.43;100832.23;102694;277;114230;-55
2023/05/25 01:08:51;;;;;;;35.10;23.90;;;;;;;13.79;81.52;100834.95;102747;277;96130;-58
2023/05/25 01:11:34;;;;;;;33.40;23.70;;;;;;;13.81;81.57;100837.38;102726;277;97203;-59
2023/05/25 01:14:18;;;;;;;36.50;24.20;;;;;;;13.81;81.57;100840.38;102768;276;119763;-54
2023/05/25 01:16:57;;;;;;;37.50;23.70;;;;;;;13.87;81.61;100839.16;102700;277;106091;-55
2023/05/25 01:19:44;;;;;;;38.00;24.90;;;;;;;13.85;81.59;100838.54;102750;277;115115;-56
2023/05/25 01:22:31;;;;;;;35.60;24.90;;;;;;;13.83;81.69;100842.20;102777;276;96855;-56
2023/05/25 01:25:20;;;;;;;35.80;24.40;;;;;;;13.86;81.78;100842.59;102781;277;96632;-58
2023/05/25 01:28:04;;;;;;;36.20;23.80;;;;;;;13.89;81.91;100842.65;102786;277;120809;-55
2023/05/25 01:30:43;;;;;;;40.70;24.90;;;;;;;13.94;81.70;100846.02;102781;277;105030;-56
2023/05/25 01:33:21;;;;;;;38.50;27.10;;;;;;;13.98;81.76;100842.66;102727;276;114958;-59
2023/05/25 01:35:55;;;;;;;37.50;25.30;;;;;;;14.01;81.74;100841.77;102792;276;96788;-59
2023/05/25 01:38:30;;;;;;;37.70;25.10;;;;;;;14.04;81.75;100838.34;102777;277;96550;-57
2023/05/25 01:41:10;;;;;;;45.00;26.00;;;;;;;14.03;81.76;100837.23;102736;277;121185;-57
2023/05/25 01:43:50;;;;;;;39.50;27.90;;;;;;;14.03;81.70;100837.09;102679;276;104978;-59
2023/05/25 01:46:34;;;;;;;39.30;26.60;;;;;;;14.02;81.77;100839.73;102743;265;113642;-59
2023/05/25 01:49:19;;;;;;;43.20;26.90;;;;;;;14.02;81.83;100833.89;102747;277;95803;-59
2023/05/25 01:52:13;;;;;;;39.10;25.70;;;;;;;14.02;81.92;100831.36;102785;277;96783;-59
2023/05/25 01:54:58;;;;;;;41.50;25.40;;;;;;;14.02;82.02;100831.02;102745;277;120678;-55
2023/05/25 01:57:38;;;;;;;40.80;25.70;;;;;;;14.01;82.04;100832.23;102768;277;106215;-58
2023/05/25 02:00:16;;;;;;;41.50;26.80;;;;;;;14.01;81.92;100834.76;102699;276;114615;-58
2023/05/25 02:02:54;;;;;;;40.40;25.90;;;;;;;14.03;82.07;100831.56;102770;277;96014;-59
2023/05/25 02:05:34;;;;;;;42.40;26.10;;;;;;;14.00;82.06;100831.30;102713;277;98514;-59
2023/05/25 02:08:19;;;;;;;41.00;25.80;;;;;;;14.01;82.23;100832.76;102730;276;120526;-54
2023/05/25 02:10:54;;;;;;;39.30;27.00;;;;;;;14.01;82.14;100840.38;102775;277;104089;-55
2023/05/25 02:13:32;;;;;;;40.60;25.70;;;;;;;14.00;82.19;100837.23;102773;277;113542;-55
2023/05/25 02:16:10;;;;;;;42.50;26.60;;;;;;;13.96;82.18;100837.88;102753;277;95246;-55
2023/05/25 02:18:57;;;;;;;35.70;26.00;;;;;;;13.97;82.34;100837.80;102766;277;97049;-54
2023/05/25 02:21:39;;;;;;;37.90;25.50;;;;;;;14.05;82.33;100828.27;102749;276;120119;-55
2023/05/25 02:24:19;;;;;;;39.60;26.70;;;;;;;14.08;82.35;100830.02;102750;276;103630;-56
2023/05/25 02:27:04;;;;;;;36.80;25.30;;;;;;;14.09;82.30;100828.00;102714;277;113244;-55
2023/05/25 02:29:41;;;;;;;35.70;25.10;;;;;;;14.04;82.41;100829.10;102499;277;97596;-57
2023/05/25 02:32:21;;;;;;;36.30;25.60;;;;;;;14.01;82.38;100837.31;102704;277;97697;-58
2023/05/25 02:35:00;;;;;;;40.70;24.70;;;;;;;14.00;82.38;100842.70;102686;277;120990;-56
2023/05/25 02:37:38;;;;;;;33.30;24.80;;;;;;;14.01;82.52;100842.00;102705;276;104862;-56
2023/05/25 02:40:24;;;;;;;36.90;24.20;;;;;;;14.04;82.54;100836.76;102700;277;114484;-57
2023/05/25 02:43:07;;;;;;;34.20;24.70;;;;;;;14.10;82.59;100839.17;102671;277;96281;-59
2023/05/25 02:45:48;;;;;;;39.00;25.10;;;;;;;14.10;82.54;100845.27;102740;277;97567;-60
2023/05/25 02:48:29;;;;;;;34.90;24.60;;;;;;;14.10;82.46;100844.73;102754;277;119866;-58
2023/05/25 02:51:08;;;;;;;35.40;24.40;;;;;;;14.12;82.45;100847.55;102739;276;105483;-60
2023/05/25 02:53:48;;;;;;;33.30;25.00;;;;;;;14.12;82.53;100849.63;102703;277;113524;-59
2023/05/25 02:56:26;;;;;;;33.60;26.00;;;;;;;14.11;82.64;100849.73;102753;277;96275;-59
2023/05/25 02:59:04;;;;;;;35.90;24.40;;;;;;;14.16;82.51;100846.14;102648;278;98552;-59
2023/05/25 03:01:46;;;;;;;34.60;24.40;;;;;;;14.16;82.72;100841.25;102766;277;119133;-58
2023/05/25 03:04:40;;;;;;;33.70;24.90;;;;;;;14.18;82.53;100847.36;102723;277;105203;-59
2023/05/25 03:07:17;;;;;;;33.00;25.00;;;;;;;14.19;82.55;100850.25;102759;277;114612;-60
2023/05/25 03:09:54;;;;;;;31.40;23.70;;;;;;;14.19;82.51;100855.10;102724;277;96233;-56
2023/05/25 03:12:33;;;;;;;31.40;23.90;;;;;;;14.23;82.54;100859.54;102743;277;98090;-57
2023/05/25 03:15:12;;;;;;;32.40;23.00;;;;;;;14.24;82.73;100859.81;102700;277;120756;-59
2023/05/25 03:17:48;;;;;;;33.80;24.30;;;;;;;14.24;82.57;100858.52;102731;277;106289;-57
2023/05/25 03:20:29;;;;;;;34.00;24.40;;;;;;;14.27;82.49;100863.20;102728;277;114235;-56
2023/05/25 03:23:19;;;;;;;32.00;24.40;;;;;;;14.28;82.51;100864.30;102750;277;96349;-57
2023/05/25 03:26:03;;;;;;;33.00;23.60;;;;;;;14.25;82.59;100867.41;102745;277;97435;-57
2023/05/25 03:28:44;;;;;;;33.90;24.10;;;;;;;14.25;82.61;100874.94;102725;277;121006;-59
2023/05/25 03:31:23;;;;;;;34.40;23.60;;;;;;;14.27;82.53;100878.05;102741;277;106414;-59
2023/05/25 03:34:07;;;;;;;33.50;24.20;;;;;;;14.24;82.53;100882.26;102779;277;114603;-60
2023/05/25 03:36:50;;;;;;;32.80;24.40;;;;;;;14.24;82.67;100883.05;102777;277;95484;-60
2023/05/25 03:39:32;;;;;;;31.90;24.40;;;;;;;14.26;82.68;100882.94;102794;277;97568;-56
2023/05/25 03:42:09;;;;;;;29.80;23.50;;;;;;;14.17;82.59;100879.54;102737;277;121113;-56
2023/05/25 03:44:49;;;;;;;36.00;24.60;;;;;;;14.17;82.80;100883.09;102682;277;104034;-55
2023/05/25 03:47:27;;;;;;;30.00;22.20;;;;;;;14.25;82.85;100877.95;102536;277;113451;-58
2023/05/25 03:50:02;;;;;;;30.30;24.70;;;;;;;14.26;82.87;100875.45;102503;277;96009;-56
2023/05/25 03:52:48;;;;;;;34.50;23.80;;;;;;;14.31;82.70;100875.83;102522;277;96932;-56
2023/05/25 03:55:27;;;;;;;34.70;24.00;;;;;;;14.34;82.61;100876.77;102504;277;121304;-55
2023/05/25 03:58:10;;;;;;;31.00;23.80;;;;;;;14.39;82.70;100877.77;102491;277;105920;-59
2023/05/25 04:00:49;;;;;;;;;;;;;;;14.43;82.70;100877.53;102500;277;113980;-60
2023/05/25 04:03:31;;;;;;;35.40;24.80;;;;;;;14.48;82.56;100880.31;102459;277;96660;-59
2023/05/25 04:06:06;;;;;;;31.60;24.50;;;;;;;14.52;82.52;100880.74;102483;277;97129;-60
2023/05/25 04:08:40;;;;;;;36.60;24.40;;;;;;;14.53;82.52;100880.41;102534;277;120693;-59
2023/05/25 04:11:24;;;;;;;33.20;25.00;;;;;;;14.52;82.47;100883.55;102524;277;104658;-59
2023/05/25 04:14:06;;;;;;;33.00;24.50;;;;;;;14.54;82.54;100882.25;102506;277;114429;-55
2023/05/25 04:16:48;;;;;;;33.90;24.60;;;;;;;14.54;82.64;100886.89;102428;277;96937;-55
2023/05/25 04:19:29;;;;;;;33.80;23.80;;;;;;;14.56;82.58;100887.45;102508;266;96543;-56
2023/05/25 04:22:03;;;;;;;32.40;23.60;;;;;;;14.59;82.54;100886.59;102499;277;119633;-55
2023/05/25 04:24:45;;;;;;;33.80;23.50;;;;;;;14.66;82.28;100888.71;102550;277;105973;-57
2023/05/25 04:27:21;;;;;;;31.70;23.90;;;;;;;14.74;82.31;100890.65;102552;277;113718;-58
2023/05/25 04:29:58;;;;;;;31.10;23.30;;;;;;;14.76;82.26;100891.41;102535;277;95894;-56
2023/05/25 04:32:37;;;;;;;32.80;23.80;;;;;;;14.87;82.34;100893.95;102610;278;95656;-60
2023/05/25 04:35:13;;;;;;;29.60;23.70;;;;;;;14.92;82.25;100896.94;102547;277;119450;-58
2023/05/25 04:37:56;;;;;;;32.70;24.10;;;;;;;14.96;82.19;100894.90;102542;277;104374;-58
2023/05/25 04:40:36;;;;;;;31.90;25.30;;;;;;;15.03;82.14;100897.71;102511;277;113391;-59
2023/05/25 04:43:12;;;;;;;34.60;24.40;;;;;;;15.04;81.94;100890.36;102545;277;95381;-57
2023/05/25 04:45:53;;;;;;;33.30;24.80;;;;;;;15.04;81.82;100894.04;102550;277;97745;-57
2023/05/25 04:48:33;;;;;;;36.80;23.40;;;;;;;15.06;81.69;100890.78;102503;277;120689;-60
2023/05/25 04:51:08;;;;;;;29.90;24.00;;;;;;;15.05;81.52;100892.95;102549;277;105718;-59
2023/05/25 04:53:48;;;;;;;32.90;24.40;;;;;;;15.04;81.17;100899.48;102572;277;115283;-56
2023/05/25 04:56:25;;;;;;;33.40;23.60;;;;;;;15.04;81.38;100904.84;102528;270;96321;-56
2023/05/25 04:59:01;;;;;;;33.30;24.30;;;;;;;15.04;81.36;100908.19;102550;277;96468;-59
2023/05/25 05:01:39;;;;;;;28.80;24.90;;;;;;;15.04;81.41;100909.91;102540;277;120867;-57
2023/05/25 05:04:21;;;;;;;31.60;23.00;;;;;;;15.04;81.36;100907.31;102500;277;104080;-58
2023/05/25 05:06:59;;;;;;;33.20;22.60;;;;;;;14.98;81.30;100907.88;102503;266;114244;-57
2023/05/25 05:09:34;;;;;;;34.00;23.50;;;;;;;14.96;81.32;100909.60;102514;277;96042;-56
2023/05/25 05:12:11;;;;;;;30.00;23.70;;;;;;;15.02;81.21;100906.30;102532;277;97578;-56
2023/05/25 05:14:48;;;;;;;29.00;23.00;;;;;;;15.06;81.26;100908.86;102559;277;118836;-59
2023/05/25 05:17:30;;;;;;;26.70;22.60;;;;;;;15.02;81.10;100908.39;102558;277;108126;-58
2023/05/25 05:20:13;;;;;;;29.80;22.60;;;;;;;14.98;81.14;100906.84;102532;277;113384;-55
2023/05/25 05:22:53;;;;;;;26.90;22.30;;;;;;;14.98;81.35;100909.68;102552;277;94741;-55
2023/05/25 05:25:31;;;;;;;28.00;21.10;;;;;;;15.03;81.35;100911.88;102568;277;98073;-54
2023/05/25 05:28:07;;;;;;;28.00;21.40;;;;;;;15.07;81.28;100915.86;102561;277;120420;-55
2023/05/25 05:30:46;;;;;;;27.50;21.80;;;;;;;15.13;81.21;100919.27;102556;278;104143;-54
2023/05/25 05:33:25;;;;;;;27.90;21.30;;;;;;;15.17;80.84;100919.11;102525;277;116106;-59
2023/05/25 05:36:03;;;;;;;29.20;21.90;;;;;;;15.17;80.91;100921.92;102493;277;94525;-58
2023/05/25 05:38:41;;;;;;;28.00;21.90;;;;;;;15.16;81.09;100923.05;102503;278;96210;-54
2023/05/25 05:41:20;;;;;;;26.70;22.10;;;;;;;15.21;80.86;100919.95;102550;277;120971;-58
2023/05/25 05:44:02;;;;;;;28.80;22.80;;;;;;;15.26;80.75;100918.20;102525;277;105547;-58
2023/05/25 05:46:44;;;;;;;29.50;22.40;;;;;;;15.29;80.66;100924.98;102546;277;114497;-58
2023/05/25 05:49:30;;;;;;;28.40;21.30;;;;;;;15.30;80.61;100925.44;102104;277;534746;-56
2023/05/25 05:52:09;;;;;;;30.70;21.50;;;;;;;15.32;80.52;100935.63;102560;277;96628;-56
2023/05/25 05:54:55;;;;;;;28.40;21.80;;;;;;;15.38;80.48;100940.55;102602;277;119472;-56
2023/05/25 05:57:37;;;;;;;26.90;20.20;;;;;;;15.47;80.35;100942.00;102630;277;105312;-58
2023/05/25 06:00:18;;;;;;;29.30;21.70;;;;;;;15.43;80.36;100945.40;102578;278;115376;-59
2023/05/25 06:02:56;;;;;;;27.50;21.10;;;;;;;15.46;80.29;100946.48;102593;277;93658;-59
2023/05/25 06:05:31;;;;;;;29.60;23.00;;;;;;;15.46;80.38;100947.45;102563;277;98434;-58
2023/05/25 06:08:12;;;;;;;27.20;21.50;;;;;;;15.55;80.29;100953.13;102576;277;121138;-56
2023/05/25 06:10:54;;;;;;;25.30;20.90;;;;;;;15.56;80.23;100955.17;102556;277;105324;-56
2023/05/25 06:13:34;;;;;;;28.90;23.20;;;;;;;15.58;80.02;100957.39;102577;277;114530;-59
2023/05/25 06:16:11;;;;;;;31.30;21.60;;;;;;;15.62;80.18;100955.97;102557;277;94604;-57
2023/05/25 06:18:46;;;;;;;30.20;22.70;;;;;;;15.71;79.95;100951.99;102574;277;97514;-57
2023/05/25 06:21:22;;;;;;;30.10;22.30;;;;;;;15.81;79.82;100955.27;102568;277;120336;-57
2023/05/25 06:24:06;;;;;;;29.20;22.60;;;;;;;15.82;79.78;100961.59;102576;277;104770;-57
2023/05/25 06:26:46;;;;;;;27.10;21.20;;;;;;;15.90;79.84;100960.71;102568;277;112428;-55
2023/05/25 06:29:27;;;;;;;30.50;21.90;;;;;;;15.97;79.63;100964.90;102590;277;92142;-57
2023/05/25 06:32:09;;;;;;;27.30;22.10;;;;;;;16.00;79.56;100965.82;102584;277;95844;-57
2023/05/25 06:34:54;;;;;;;27.10;20.60;;;;;;;16.05;79.34;100970.42;102595;278;119467;-57
2023/05/25 06:37:34;;;;;;;26.80;21.00;;;;;;;16.03;79.37;100970.30;102571;277;102810;-59
2023/05/25 06:40:11;;;;;;;26.70;21.20;;;;;;;16.02;79.23;100970.01;102587;277;112985;-60
2023/05/25 06:42:48;;;;;;;28.80;21.40;;;;;;;16.03;79.18;100971.19;102582;277;95795;-56
2023/05/25 06:45:24;;;;;;;26.40;21.50;;;;;;;16.07;79.08;100974.45;102559;277;98544;-56
2023/05/25 06:48:02;;;;;;;27.40;22.20;;;;;;;16.07;79.10;100975.92;102480;278;120048;-54
2023/05/25 06:50:44;;;;;;;27.70;22.90;;;;;;;16.10;78.83;100976.42;102525;277;105848;-59
2023/05/25 06:53:26;;;;;;;29.70;22.90;;;;;;;16.09;78.69;100975.73;102536;277;114919;-59
2023/05/25 06:56:08;;;;;;;29.40;22.60;;;;;;;16.04;78.79;100981.04;102570;277;94370;-58
2023/05/25 06:58:48;;;;;;;27.60;22.00;;;;;;;16.01;78.74;100982.55;102519;277;96668;-58
2023/05/25 07:01:32;;;;;;;29.30;22.50;;;;;;;15.93;78.73;100980.38;102498;277;120886;-57
2023/05/25 07:04:07;;;;;;;28.70;21.70;;;;;;;15.87;78.88;100977.23;102585;277;105456;-56
2023/05/25 07:06:44;;;;;;;29.10;21.90;;;;;;;15.94;78.85;100974.33;102520;277;114735;-60
2023/05/25 07:09:25;;;;;;;26.40;21.20;;;;;;;16.02;78.80;100976.71;102562;277;97507;-55
2023/05/25 07:12:06;;;;;;;27.60;21.40;;;;;;;16.11;78.73;100973.11;102469;278;97801;-56
2023/05/25 07:14:46;;;;;;;26.00;20.90;;;;;;;16.21;78.41;100975.61;102457;278;123262;-58
2023/05/25 07:17:22;;;;;;;28.00;21.80;;;;;;;16.22;78.62;100974.44;102619;277;105018;-57
2023/05/25 07:19:57;;;;;;;27.60;20.70;;;;;;;16.34;78.51;100975.26;102566;277;114230;-57
2023/05/25 07:22:35;;;;;;;28.80;20.30;;;;;;;16.44;78.36;100972.41;102536;278;97260;-56
2023/05/25 07:25:12;;;;;;;25.30;19.40;;;;;;;16.51;78.34;100970.90;102511;277;96197;-55
2023/05/25 07:27:54;;;;;;;23.60;19.80;;;;;;;16.62;78.02;100969.11;102614;277;120948;-58
2023/05/25 07:30:30;;;;;;;22.90;19.10;;;;;;;16.67;78.01;100971.80;102550;277;105799;-59
2023/05/25 07:33:10;;;;;;;23.50;19.90;;;;;;;16.68;77.82;100969.73;102550;277;114570;-54
2023/05/25 07:35:51;;;;;;;22.70;19.60;;;;;;;16.81;77.76;100971.62;102575;277;94170;-55
2023/05/25 07:38:28;;;;;;;26.20;21.50;;;;;;;16.90;77.65;100973.80;102579;277;98039;-55
2023/05/25 07:41:13;;;;;;;28.80;21.10;;;;;;;16.95;77.33;100973.04;102572;277;119481;-55
2023/05/25 07:43:47;;;;;;;23.30;19.60;;;;;;;16.95;77.13;100975.92;102537;277;105199;-58
2023/05/25 07:46:23;;;;;;;;;;;;;;;17.03;77.17;100977.45;102508;277;115140;-59
2023/05/25 07:49:02;;;;;;;27.40;20.90;;;;;;;17.05;76.98;100977.27;102492;278;97085;-56
2023/05/25 07:51:45;;;;;;;28.40;22.90;;;;;;;17.10;76.68;100974.21;102575;277;95308;-56
2023/05/25 07:54:26;;;;;;;29.10;22.30;;;;;;;17.15;76.52;100971.13;102565;277;120087;-54
2023/05/25 07:57:07;;;;;;;29.40;20.70;;;;;;;17.28;76.46;100968.08;102592;266;105153;-56
2023/05/25 07:59:43;;;;;;;26.30;20.10;;;;;;;17.38;76.44;100970.96;102580;277;114601;-59
2023/05/25 08:02:25;;;;;;;24.60;21.40;;;;;;;17.48;76.36;100968.58;102575;277;94260;-58
2023/05/25 08:05:07;;;;;;;24.90;21.90;;;;;;;17.61;76.10;100970.57;102558;277;96727;-56
2023/05/25 08:07:45;;;;;;;23.30;20.70;;;;;;;17.70;75.69;100969.54;102612;270;117951;-54
2023/05/25 08:10:22;;;;;;;23.20;19.60;;;;;;;17.75;75.57;100970.96;102570;277;105253;-56
2023/05/25 08:12:59;;;;;;;23.80;19.60;;;;;;;17.80;75.49;100970.39;102585;277;114309;-58
2023/05/25 08:15:36;;;;;;;23.90;20.20;;;;;;;17.98;75.38;100968.08;102559;277;94578;-58
2023/05/25 08:18:13;;;;;;;26.80;20.70;;;;;;;18.19;75.13;100968.60;102595;277;98407;-57
2023/05/25 08:20:55;;;;;;;22.70;19.20;;;;;;;18.34;74.88;100968.07;102567;277;120336;-56
2023/05/25 08:23:34;;;;;;;22.00;19.40;;;;;;;18.46;74.38;100968.05;102536;277;105218;-58
2023/05/25 08:26:12;;;;;;;25.80;21.00;;;;;;;18.57;74.33;100969.04;102490;277;114378;-58
2023/05/25 08:28:49;;;;;;;27.10;20.70;;;;;;;18.82;74.30;100971.36;102540;277;93779;-56
2023/05/25 08:31:31;;;;;;;26.30;19.80;;;;;;;19.06;74.06;100971.89;102552;277;97922;-56
2023/05/25 08:34:10;;;;;;;22.10;18.50;;;;;;;19.25;73.55;100969.52;102559;277;120718;-56
2023/05/25 08:36:48;;;;;;;20.10;17.70;;;;;;;19.38;73.10;100972.60;102535;277;106219;-57
2023/05/25 08:39:24;;;;;;;22.00;18.40;;;;;;;19.63;72.78;100968.45;102411;277;116688;-58
2023/05/25 08:42:00;;;;;;;24.10;18.20;;;;;;;20.58;73.59;100969.77;102543;277;94116;-58
2023/05/25 08:44:39;;;;;;;19.20;17.20;;;;;;;22.11;72.91;100959.23;102619;277;98254;-56
2023/05/25 08:47:23;;;;;;;18.80;16.80;;;;;;;23.38;71.26;100957.13;102527;277;119887;-57
2023/05/25 08:50:03;;;;;;;16.70;14.90;;;;;;;24.38;69.17;100955.41;102564;277;104467;-57
2023/05/25 08:52:45;;;;;;;17.70;14.80;;;;;;;25.05;66.07;100956.08;102548;277;115402;-59
2023/05/25 08:55:27;;;;;;;15.80;14.20;;;;;;;25.42;64.40;100952.42;102575;277;93543;-59
2023/05/25 08:58:11;;;;;;;17.00;15.30;;;;;;;26.12;62.91;100947.95;102552;277;96284;-58
2023/05/25 09:00:57;;;;;;;16.60;14.90;;;;;;;26.33;61.31;100949.89;102537;277;119487;-59
2023/05/25 09:03:33;;;;;;;15.60;13.90;;;;;;;26.34;60.33;100947.77;102555;277;105434;-59
2023/05/25 09:06:13;;;;;;;16.70;14.10;;;;;;;26.19;58.75;100945.29;102500;277;114310;-60
2023/05/25 09:08:48;;;;;;;16.10;14.50;;;;;;;25.86;58.29;100948.06;102536;277;93213;-59
2023/05/25 09:11:23;;;;;;;16.60;14.90;;;;;;;25.75;57.98;100947.45;102430;279;98318;-58
2023/05/25 09:14:00;;;;;;;16.90;15.20;;;;;;;25.56;57.45;100949.81;102528;277;120277;-60
2023/05/25 09:16:37;;;;;;;17.90;16.00;;;;;;;25.35;57.09;100953.62;102528;277;104139;-59
2023/05/25 09:19:14;;;;;;;18.00;16.10;;;;;;;25.09;56.59;100955.14;102518;277;114455;-59
2023/05/25 09:22:02;;;;;;;17.80;16.20;;;;;;;24.73;56.63;100956.64;102530;277;94898;-58
2023/05/25 09:24:39;;;;;;;16.40;14.80;;;;;;;24.52;56.39;100958.73;102542;276;97878;-57
2023/05/25 09:27:25;;;;;;;15.70;14.10;;;;;;;24.48;56.81;100952.69;102565;277;120781;-56
2023/05/25 09:30:07;;;;;;;16.00;14.40;;;;;;;24.68;57.35;100958.48;102576;277;104040;-57
2023/05/25 09:32:45;;;;;;;16.30;14.20;;;;;;;24.91;57.21;100954.09;102647;277;114931;-56
2023/05/25 09:35:25;;;;;;;16.30;14.60;;;;;;;25.03;57.04;100961.05;102603;277;94602;-55
2023/05/25 09:38:04;;;;;;;15.90;14.30;;;;;;;25.08;56.64;100955.80;102619;278;96387;-57
2023/05/25 09:40:42;;;;;;;17.50;15.80;;;;;;;25.13;56.33;100957.59;102566;277;120342;-56
2023/05/25 09:43:21;;;;;;;18.40;16.60;;;;;;;24.92;55.73;100962.94;102611;277;105868;-56
2023/05/25 09:46:01;;;;;;;18.90;17.00;;;;;;;24.82;55.60;100965.44;102506;278;112636;-56
2023/05/25 09:48:42;;;;;;;17.10;15.40;;;;;;;24.90;55.40;100961.67;102486;277;94921;-56
2023/05/25 09:51:22;;;;;;;16.80;14.80;;;;;;;24.99;55.71;100965.40;102537;277;96889;-57
2023/05/25 09:53:59;;;;;;;16.70;15.00;;;;;;;24.88;55.73;100969.02;102546;277;121290;-59
2023/05/25 09:56:37;;;;;;;18.00;16.10;;;;;;;24.74;55.30;100970.23;102549;277;104620;-59
2023/05/25 09:59:12;;;;;;;18.00;15.10;;;;;;;24.54;55.08;100970.40;102502;277;115209;-60
2023/05/25 10:01:56;;;;;;;16.90;14.70;;;;;;;24.33;55.59;100967.95;102528;277;94045;-59
2023/05/25 10:04:36;;;;;;;15.50;14.00;;;;;;;24.16;55.68;100968.76;102554;277;98279;-55
2023/05/25 10:07:19;;;;;;;16.60;14.80;;;;;;;23.94;55.89;100963.77;102508;278;119805;-57
2023/05/25 10:10:06;;;;;;;16.50;14.70;;;;;;;23.79;56.01;100969.25;102572;277;105338;-56
2023/05/25 10:12:45;;;;;;;16.10;14.50;;;;;;;23.55;56.16;100966.11;102548;277;114650;-59
2023/05/25 10:15:22;;;;;;;16.90;15.10;;;;;;;23.25;56.72;100970.95;102588;277;93949;-59
2023/05/25 10:18:04;;;;;;;16.00;14.20;;;;;;;23.04;56.88;100972.89;102578;277;97676;-59
2023/05/25 10:20:49;;;;;;;19.60;16.40;;;;;;;22.76;57.13;100973.60;102549;278;120365;-59
2023/05/25 10:23:33;;;;;;;14.30;12.80;;;;;;;22.51;57.10;100973.99;102576;277;105048;-56
2023/05/25 10:26:13;;;;;;;18.70;14.10;;;;;;;22.21;57.80;100980.54;102549;277;113416;-56
2023/05/25 10:28:55;;;;;;;15.00;13.60;;;;;;;21.97;58.31;100977.88;102526;277;93820;-56
2023/05/25 10:31:36;;;;;;;15.10;13.40;;;;;;;21.79;58.62;100978.33;102555;278;97419;-56
2023/05/25 10:34:18;;;;;;;15.00;13.50;;;;;;;21.55;59.08;100980.04;102547;277;121527;-56
2023/05/25 10:37:05;;;;;;;14.70;13.20;;;;;;;21.47;59.51;100980.71;102548;277;104721;-55
2023/05/25 10:39:51;;;;;;;14.90;13.50;;;;;;;21.47;59.95;100978.45;102533;266;115255;-55
2023/05/25 10:42:35;;;;;;;20.70;15.80;;;;;;;21.42;60.14;100976.23;102548;278;94217;-58
2023/05/25 10:45:12;;;;;;;18.90;14.50;;;;;;;21.31;60.32;100973.21;102611;277;97594;-58
2023/05/25 10:47:51;;;;;;;16.30;14.00;;;;;;;21.25;60.31;100970.11;102567;277;120097;-56
2023/05/25 10:50:34;;;;;;;14.70;13.20;;;;;;;21.23;61.01;100968.77;102571;277;105424;-57
2023/05/25 10:53:14;;;;;;;14.90;13.40;;;;;;;21.11;60.82;100974.50;102521;277;113787;-57
2023/05/25 10:56:05;;;;;;;14.20;12.80;;;;;;;20.96;60.90;100970.45;102646;277;93790;-58
2023/05/25 10:58:45;;;;;;;16.40;14.70;;;;;;;20.99;61.17;100971.78;102586;277;96893;-55
2023/05/25 11:01:23;;;;;;;13.80;12.50;;;;;;;20.89;61.29;100970.13;102583;277;120885;-55
2023/05/25 11:04:17;;;;;;;14.50;13.10;;;;;;;21.02;61.27;100968.64;102581;277;105498;-55
2023/05/25 11:07:15;;;;;;;14.90;13.40;;;;;;;21.19;61.57;100966.05;102580;277;113542;-56
2023/05/25 11:10:02;;;;;;;14.90;13.40;;;;;;;21.24;61.65;100959.98;102523;277;91933;-59
2023/05/25 11:12:39;;;;;;;14.40;13.00;;;;;;;21.38;61.97;100962.13;102597;277;97112;-59
2023/05/25 11:15:23;;;;;;;15.60;13.50;;;;;;;21.55;61.78;100960.07;102525;277;120337;-60
2023/05/25 11:18:03;;;;;;;13.90;12.40;;;;;;;21.85;61.62;100956.54;102560;277;105676;-59
2023/05/25 11:20:45;;;;;;;15.10;12.60;;;;;;;22.07;61.45;100953.73;102544;277;111903;-58
2023/05/25 11:23:33;;;;;;;13.90;12.60;;;;;;;22.31;61.22;100950.35;102524;277;94503;-56
2023/05/25 11:26:22;;;;;;;13.90;12.50;;;;;;;22.78;60.90;100948.98;102558;277;97254;-55
2023/05/25 11:29:12;;;;;;;13.60;12.10;;;;;;;23.12;59.87;100943.01;102576;277;120587;-56
2023/05/25 11:31:54;;;;;;;13.30;12.00;;;;;;;23.68;59.62;100943.39;102561;277;105170;-56
2023/05/25 11:34:40;;;;;;;11.80;10.70;;;;;;;24.03;58.62;100942.96;102566;277;112488;-57
2023/05/25 11:37:27;;;;;;;14.00;11.40;;;;;;;24.31;57.80;100938.15;102499;277;94290;-56
2023/05/25 11:40:09;;;;;;;12.80;11.20;;;;;;;24.62;57.49;100931.98;102547;277;98087;-59
2023/05/25 11:42:49;;;;;;;14.40;11.30;;;;;;;24.89;57.07;100930.46;102618;277;119386;-59
2023/05/25 11:45:28;;;;;;;13.30;11.80;;;;;;;25.06;56.51;100929.27;102616;277;104728;-60
2023/05/25 11:48:06;;;;;;;12.30;11.20;;;;;;;25.09;56.68;100927.62;102619;277;113658;-60
2023/05/25 11:50:47;;;;;;;11.60;10.40;;;;;;;25.23;56.47;100926.48;102594;277;93846;-60
2023/05/25 11:53:29;;;;;;;13.00;10.90;;;;;;;25.44;56.58;100925.77;102640;277;96452;-59
2023/05/25 11:56:05;;;;;;;12.80;11.00;;;;;;;25.53;56.31;100922.95;102614;277;120595;-60
2023/05/25 11:58:46;;;;;;;12.10;10.90;;;;;;;25.30;55.99;100920.69;102645;277;106316;-59
2023/05/25 12:01:32;;;;;;;13.60;11.90;;;;;;;25.38;55.79;100917.66;102568;277;113936;-58
2023/05/25 12:04:12;;;;;;;12.50;11.30;;;;;;;25.46;55.24;100914.92;102438;277;94228;-60